首页
METAR-TAF:

METAR-TAF

机场 :

汶萊國際機場

文莱, 文莱

纬度: 04-56N, 经度: 114-56E, 海拔: 22米

当前天气观测

该预报发布于11分钟前的00:00 UTC
风速4节,风向
温度 28°C
湿度 89%
气压 1008 hPa
能見度: 6000
少量云层高于1500英尺
多云层高于30000英尺

METAR: WBSB 170000Z 18004KT 6000 FEW015 BKN300 28/26 Q1008 NOSIG

时间: 08:11 (00:11 UTC)

预报

该预报发布于1小时和11分钟前的23:00 UTC
预报有效从17日的 00点(UTC)到 18日的 06点(UTC)
风速4节,风向南转西南
能見度: 7000
少量云层高于1500英尺
少量云层高于1600英尺, 积雨云.
成为
从 17日的 04点(UTC)到 17日的 06点(UTC)
风速8节,风向西转西北
散云层高于1600英尺
少量云层高于1700英尺, 积雨云.
短暂存在
从 17日的 04点(UTC)到 17日的 06点(UTC)
能見度: 8000
小阵雨

TAF: WBSB 162300Z 1700/1806 20004KT 7000 FEW015 FEW016CB BECMG 1704/1706 30008KT SCT016 FEW017CB TEMPO 1704/1706 8000 -SHRA

超过4000个机场的气象观测和天气预报(METAR&TAF报告)。

可查询的气象台以黄色和红色小点在地图上表示。

将鼠标移到小点上方,可查看气象台名称。

然后点击查看天气观测和预报。

如需切换地图:点击带黑十字的绿色按钮放大地图;点击带横线的绿色按钮缩小地图;或者点击绿色箭头查看邻近地区的地图。


METAR-TAF: